Time;durP1;ratioP1;P1;durP2;ratioP2;P2;SDS_P1;SDS_P2;PMS_P1;PMS_P2;Temp;Humidity;BMP_temperature;BMP_pressure;BME280_temperature;BME280_humidity;BME280_pressure;Samples;Min_cycle;Max_cycle;Signal;HPM_P1;HPM_P2
2022/11/08 07:06:06;;;;;;;5.40;3.50;;;;;;;10.50;91.99;100376.88;5409490;27;20405;-72
2022/11/08 07:08:37;;;;;;;4.05;2.60;;;;;;;10.59;91.72;100380.63;5386900;27;20071;-72
2022/11/08 07:11:10;;;;;;;5.15;3.00;;;;;;;10.61;91.00;100381.16;5383452;27;20048;-72
2022/11/08 07:13:42;;;;;;;7.30;3.53;;;;;;;10.66;91.19;100384.66;5366356;27;20458;-71
2022/11/08 07:16:14;;;;;;;7.50;3.78;;;;;;;10.71;90.57;100389.31;5385453;27;20015;-71
2022/11/08 07:18:45;;;;;;;4.63;2.40;;;;;;;10.75;89.97;100384.78;5386285;27;20042;-71
2022/11/08 07:21:16;;;;;;;8.23;3.63;;;;;;;10.75;90.37;100387.56;5380923;27;20018;-72
2022/11/08 07:23:49;;;;;;;4.18;3.08;;;;;;;10.75;90.03;100379.25;5391615;27;20023;-72
2022/11/08 07:26:20;;;;;;;6.97;5.15;;;;;;;10.84;90.11;100368.28;5382463;27;20029;-73
2022/11/08 07:28:52;;;;;;;5.07;3.65;;;;;;;10.87;89.90;100370.47;5395474;27;20101;-71
2022/11/08 07:31:23;;;;;;;7.63;2.63;;;;;;;10.87;89.42;100379.59;5381142;27;20027;-73
2022/11/08 07:33:55;;;;;;;4.60;2.65;;;;;;;10.93;89.21;100373.97;5367643;27;20057;-73
2022/11/08 07:36:26;;;;;;;5.72;2.60;;;;;;;10.94;88.76;100375.59;5367951;27;20449;-71
2022/11/08 07:38:57;;;;;;;4.18;2.50;;;;;;;11.02;88.90;100369.38;5370280;27;20031;-74
2022/11/08 07:41:28;;;;;;;3.08;2.25;;;;;;;10.93;88.53;100376.72;5372571;27;20058;-74
2022/11/08 07:44:00;;;;;;;4.25;3.00;;;;;;;10.99;88.26;100365.25;5365197;27;20102;-74
2022/11/08 07:46:34;;;;;;;5.10;2.47;;;;;;;11.07;87.73;100374.84;5369402;27;20019;-74
2022/11/08 07:49:05;;;;;;;4.43;1.90;;;;;;;11.04;87.16;100359.63;5378834;27;20119;-74
2022/11/08 07:51:36;;;;;;;6.22;2.25;;;;;;;11.12;85.77;100362.78;5384534;27;20101;-72
2022/11/08 07:54:10;;;;;;;5.07;2.35;;;;;;;11.21;86.39;100361.78;5385839;27;20022;-77
2022/11/08 07:56:41;;;;;;;2.88;1.70;;;;;;;11.28;85.71;100355.84;5386741;27;20030;-73
2022/11/08 07:59:13;;;;;;;6.45;2.55;;;;;;;11.34;86.08;100362.13;5378097;27;20123;-76
2022/11/08 08:01:44;;;;;;;2.63;1.70;;;;;;;11.40;83.71;100358.13;5367382;27;20107;-79
2022/11/08 08:04:17;;;;;;;3.75;1.80;;;;;;;11.44;83.45;100351.66;5377484;27;20031;-80
2022/11/08 08:06:49;;;;;;;3.22;1.65;;;;;;;11.54;82.47;100350.63;5373402;27;20019;-80
2022/11/08 08:09:20;;;;;;;3.17;1.65;;;;;;;11.60;81.74;100357.72;5364961;27;20023;-81
2022/11/08 08:11:51;;;;;;;4.90;2.40;;;;;;;11.66;80.89;100356.50;5370569;27;20097;-82
2022/11/08 08:14:23;;;;;;;3.90;1.50;;;;;;;11.72;80.56;100355.25;5365919;27;20038;-83
2022/11/08 08:16:54;;;;;;;2.28;1.70;;;;;;;11.77;81.04;100353.50;5367813;27;20023;-83
2022/11/08 08:19:25;;;;;;;2.95;1.90;;;;;;;11.80;79.55;100353.69;5349265;27;20023;-81
2022/11/08 08:21:56;;;;;;;2.60;1.98;;;;;;;11.87;79.55;100361.66;5348391;27;20389;-81
2022/11/08 08:24:28;;;;;;;3.55;1.77;;;;;;;11.89;79.39;100370.53;5360320;27;20470;-81
2022/11/08 08:26:59;;;;;;;6.57;1.80;;;;;;;11.94;78.65;100373.19;5366678;27;20030;-83
2022/11/08 08:29:30;;;;;;;3.65;1.50;;;;;;;11.97;78.81;100367.00;5357392;27;20054;-84
2022/11/08 08:32:02;;;;;;;2.80;1.60;;;;;;;12.01;78.93;100370.78;5349844;27;20072;-83
2022/11/08 08:34:33;;;;;;;2.63;1.80;;;;;;;12.05;79.02;100385.72;5366861;27;20023;-81
2022/11/08 08:37:04;;;;;;;4.53;1.60;;;;;;;12.08;78.36;100389.84;5360687;27;20155;-80
2022/11/08 08:39:38;;;;;;;3.03;1.98;;;;;;;12.15;78.94;100398.59;5369606;27;20026;-79
2022/11/08 08:42:11;;;;;;;4.97;2.63;;;;;;;12.15;77.52;100379.94;5365054;27;20094;-79
2022/11/08 08:44:42;;;;;;;2.60;1.60;;;;;;;12.21;78.08;100377.06;5365654;27;20043;-80
2022/11/08 08:47:17;;;;;;;2.95;1.70;;;;;;;12.22;77.32;100373.13;5348932;27;20465;-78
2022/11/08 08:49:48;;;;;;;3.13;1.60;;;;;;;12.24;77.58;100365.28;5347654;27;20035;-77
2022/11/08 08:52:19;;;;;;;3.55;1.60;;;;;;;12.29;77.87;100351.28;5349117;27;20497;-78
2022/11/08 08:54:53;;;;;;;9.50;8.27;;;;;;;12.29;77.46;100365.19;5349316;27;20411;-80
2022/11/08 08:57:24;;;;;;;2.47;2.22;;;;;;;12.33;77.73;100367.03;5349489;27;20037;-83
2022/11/08 08:59:56;;;;;;;4.07;1.83;;;;;;;12.34;77.06;100365.88;5350713;27;20460;-79
2022/11/08 09:02:27;;;;;;;3.00;1.60;;;;;;;12.43;78.72;100346.50;5361772;27;20354;-80
2022/11/08 09:04:58;;;;;;;4.40;1.92;;;;;;;12.39;77.69;100353.81;5369714;27;20388;-78
2022/11/08 09:07:32;;;;;;;3.40;1.85;;;;;;;12.43;77.81;100346.50;5370281;27;20030;-77
2022/11/08 09:10:05;;;;;;;4.25;2.28;;;;;;;12.48;77.38;100343.59;5367135;27;20022;-77
2022/11/08 09:12:37;;;;;;;3.17;2.10;;;;;;;12.49;76.70;100339.69;5348102;27;20026;-77
2022/11/08 09:15:09;;;;;;;5.13;1.90;;;;;;;12.51;76.63;100342.16;5359748;27;20053;-75
2022/11/08 09:17:41;;;;;;;3.78;1.60;;;;;;;12.56;76.88;100356.75;5351955;27;20027;-77
2022/11/08 09:20:13;;;;;;;2.50;1.70;;;;;;;12.58;76.68;100362.84;5352648;27;20026;-75
2022/11/08 09:22:44;;;;;;;3.70;1.95;;;;;;;12.62;77.06;100351.88;5357179;27;20365;-79
2022/11/08 09:25:16;;;;;;;4.18;1.95;;;;;;;12.64;76.21;100334.88;5368795;27;20030;-77
2022/11/08 09:27:47;;;;;;;2.88;1.90;;;;;;;12.67;76.67;100346.19;5363521;27;20115;-77
2022/11/08 09:30:18;;;;;;;2.45;1.80;;;;;;;12.68;76.32;100330.31;5365203;27;20047;-77
2022/11/08 09:32:52;;;;;;;2.75;1.70;;;;;;;12.67;76.90;100340.63;5348460;27;20505;-78
2022/11/08 09:35:23;;;;;;;7.47;3.45;;;;;;;12.70;76.06;100345.56;5348440;27;20016;-79
2022/11/08 09:37:55;;;;;;;4.18;2.17;;;;;;;12.72;76.67;100345.25;5346950;27;20022;-79
2022/11/08 09:40:37;;;;;;;2.50;1.70;;;;;;;12.74;76.54;100354.13;5355979;27;20018;-79
2022/11/08 09:43:37;;;;;;;3.83;1.95;;;;;;;12.79;76.39;100343.66;5374412;27;20023;-84
2022/11/08 09:46:13;;;;;;;3.63;2.30;;;;;;;12.87;76.10;100336.53;5355757;27;20034;-78
2022/11/08 09:48:45;;;;;;;3.25;1.60;;;;;;;12.88;75.58;100340.94;5353917;27;20465;-74
2022/11/08 09:51:19;;;;;;;3.75;2.05;;;;;;;12.95;75.86;100346.88;5349945;27;20031;-79
2022/11/08 09:53:56;;;;;;;3.47;2.00;;;;;;;13.00;75.46;100352.31;5349880;27;20035;-79
2022/11/08 09:56:34;;;;;;;3.63;2.10;;;;;;;13.08;76.64;100361.88;5349942;27;20046;-75
2022/11/08 09:59:46;;;;;;;5.43;1.95;;;;;;;13.14;74.65;100359.75;5356428;27;20469;-79
2022/11/08 10:02:21;;;;;;;4.60;1.90;;;;;;;13.20;74.88;100358.50;5347232;27;20393;-80
2022/11/08 10:05:11;;;;;;;7.13;2.05;;;;;;;13.24;74.28;100362.28;5346615;27;20515;-79
2022/11/08 10:07:49;;;;;;;3.67;1.58;;;;;;;13.29;73.86;100356.59;5358811;27;20023;-80
2022/11/08 10:10:43;;;;;;;2.83;1.92;;;;;;;13.36;74.62;100362.53;5358586;27;20118;-79
2022/11/08 10:13:45;;;;;;;3.78;1.83;;;;;;;13.42;73.78;100361.28;5345576;27;20397;-78
2022/11/08 10:16:38;;;;;;;3.15;1.60;;;;;;;13.48;72.76;100359.97;5347008;27;20553;-74
2022/11/08 10:19:34;;;;;;;5.85;3.08;;;;;;;13.55;73.27;100372.63;5346423;27;20435;-75
2022/11/08 10:22:20;;;;;;;1.77;1.45;;;;;;;13.57;73.24;100382.28;5347670;27;20054;-77
2022/11/08 10:25:14;;;;;;;6.38;2.00;;;;;;;13.57;72.60;100371.16;5346633;27;20024;-75
2022/11/08 10:27:45;;;;;;;7.60;5.28;;;;;;;13.62;72.88;100378.56;5359317;27;20418;-75
2022/11/08 10:30:22;;;;;;;8.35;4.50;;;;;;;13.63;72.45;100381.03;5368706;27;20033;-75
2022/11/08 10:32:54;;;;;;;5.50;1.85;;;;;;;13.66;72.88;100383.16;5368198;27;20042;-71
2022/11/08 10:35:34;;;;;;;1.60;1.50;;;;;;;13.68;71.91;100386.47;5358380;27;20027;-71
2022/11/08 10:38:45;;;;;;;5.85;2.78;;;;;;;13.69;72.57;100387.28;5347209;27;20038;-72
2022/11/08 10:41:38;;;;;;;2.88;1.90;;;;;;;13.70;71.78;100380.53;5317849;27;20439;-78
2022/11/08 10:44:20;;;;;;;3.75;1.90;;;;;;;13.71;72.01;100382.22;5348016;27;20037;-82
2022/11/08 10:46:54;;;;;;;3.00;1.75;;;;;;;13.73;72.27;100388.28;5346472;27;20521;-81
2022/11/08 10:49:29;;;;;;;6.00;1.95;;;;;;;13.74;71.90;100384.34;5367252;27;20022;-81
2022/11/08 10:52:15;;;;;;;3.33;1.70;;;;;;;13.80;72.07;100383.03;5367610;27;20038;-82
2022/11/08 10:54:57;;;;;;;2.30;1.98;;;;;;;13.84;72.21;100378.47;5367159;27;20018;-78
2022/11/08 10:57:31;;;;;;;3.90;2.03;;;;;;;13.85;71.45;100377.31;5346397;27;20023;-79
2022/11/08 11:00:14;;;;;;;3.95;1.73;;;;;;;13.87;70.94;100379.78;5346345;27;20023;-77
2022/11/08 11:02:53;;;;;;;3.03;1.88;;;;;;;13.86;71.59;100378.97;5345471;28;20028;-79
2022/11/08 11:05:32;;;;;;;3.70;1.90;;;;;;;13.90;71.50;100371.59;5346131;28;20051;-78
2022/11/08 11:08:06;;;;;;;1.95;1.70;;;;;;;13.91;71.41;100364.88;5366471;27;20418;-78
2022/11/08 11:10:41;;;;;;;2.60;1.83;;;;;;;13.94;71.38;100354.25;5364872;27;20065;-75
2022/11/08 11:13:12;;;;;;;4.90;1.83;;;;;;;13.99;72.35;100354.91;5355289;27;20106;-73
2022/11/08 11:15:46;;;;;;;5.10;1.80;;;;;;;13.96;71.28;100343.56;5347934;27;20134;-74
2022/11/08 11:18:22;;;;;;;2.72;1.88;;;;;;;13.99;71.67;100337.38;5354856;27;20442;-76
2022/11/08 11:21:02;;;;;;;3.30;1.60;;;;;;;13.99;71.36;100343.75;5353402;27;20378;-75
2022/11/08 11:23:50;;;;;;;6.70;1.83;;;;;;;14.01;70.90;100337.84;5345313;28;20028;-74
2022/11/08 11:26:30;;;;;;;3.25;1.70;;;;;;;14.01;71.27;100335.91;5346267;28;20034;-78
2022/11/08 11:29:13;;;;;;;3.80;1.85;;;;;;;14.11;71.76;100331.94;5350251;27;20030;-77
2022/11/08 11:31:48;;;;;;;5.10;2.45;;;;;;;14.07;71.55;100312.28;5345483;27;20556;-78
2022/11/08 11:34:23;;;;;;;3.70;1.98;;;;;;;14.12;70.99;100312.13;5346338;27;20031;-75
2022/11/08 11:37:08;;;;;;;8.02;1.90;;;;;;;14.17;71.47;100311.13;5345052;27;20469;-76
2022/11/08 11:40:23;;;;;;;4.30;2.28;;;;;;;14.19;70.94;100331.16;5346143;27;20555;-81
2022/11/08 11:43:10;;;;;;;4.13;1.90;;;;;;;14.20;70.98;100329.19;5313158;28;20122;-76
2022/11/08 11:45:51;;;;;;;5.75;1.83;;;;;;;14.23;71.40;100323.78;5358493;27;20023;-74
2022/11/08 11:48:28;;;;;;;3.50;1.80;;;;;;;14.24;71.09;100322.63;5366773;27;20465;-74
2022/11/08 11:51:01;;;;;;;4.63;2.10;;;;;;;14.26;71.48;100317.53;5328140;27;20019;-74
2022/11/08 11:53:35;;;;;;;2.92;2.20;;;;;;;14.27;71.43;100319.19;5350382;27;20084;-73
2022/11/08 11:56:12;;;;;;;4.30;2.10;;;;;;;14.29;71.07;100322.47;5350022;27;20023;-73
2022/11/08 11:58:56;;;;;;;3.55;2.20;;;;;;;14.30;71.37;100303.78;5361506;27;20023;-73
2022/11/08 12:01:51;;;;;;;3.15;1.98;;;;;;;14.27;71.61;100302.44;5371533;27;20031;-73
2022/11/08 12:04:37;;;;;;;3.15;1.92;;;;;;;14.26;71.72;100305.56;5368511;27;20129;-74
2022/11/08 12:07:29;;;;;;;3.20;2.20;;;;;;;14.25;70.87;100310.31;5371137;27;20075;-73
2022/11/08 12:10:22;;;;;;;3.03;2.00;;;;;;;14.25;71.27;100293.59;5355117;27;20019;-73
2022/11/08 12:13:35;;;;;;;4.07;2.15;;;;;;;14.28;71.23;100287.34;5348961;27;20031;-73
2022/11/08 12:16:17;;;;;;;6.88;1.95;;;;;;;14.28;71.31;100287.34;5349859;27;20067;-71
2022/11/08 12:18:56;;;;;;;7.03;2.08;;;;;;;14.32;71.40;100293.91;5360065;27;20027;-74
2022/11/08 12:21:43;;;;;;;2.40;1.90;;;;;;;14.32;71.18;100293.09;5363165;27;20058;-73
2022/11/08 12:24:23;;;;;;;3.15;1.80;;;;;;;14.39;72.49;100303.75;5352166;27;20129;-82
2022/11/08 12:27:13;;;;;;;4.35;2.00;;;;;;;14.39;71.20;100300.97;5349220;27;20035;-74
2022/11/08 12:30:22;;;;;;;3.50;1.88;;;;;;;14.38;70.66;100297.38;5349021;27;20107;-77
2022/11/08 12:32:53;;;;;;;4.75;1.85;;;;;;;14.46;72.55;100302.13;5324553;27;20122;-75
2022/11/08 12:35:57;;;;;;;4.95;1.90;;;;;;;14.44;70.97;100309.16;5355898;27;20107;-76
2022/11/08 12:38:52;;;;;;;4.15;2.65;;;;;;;14.49;70.85;100303.41;5353453;27;20027;-76
2022/11/08 12:42:02;;;;;;;5.32;3.28;;;;;;;14.53;71.01;100302.47;5367949;27;20014;-80
2022/11/08 12:45:04;;;;;;;2.83;1.85;;;;;;;14.59;70.57;100291.13;5352137;27;20433;-77
2022/11/08 12:47:45;;;;;;;3.72;2.03;;;;;;;14.60;70.42;100293.63;5348282;27;20108;-76
2022/11/08 12:50:40;;;;;;;5.68;2.13;;;;;;;14.66;69.79;100285.88;5348824;27;20069;-75
2022/11/08 12:53:40;;;;;;;10.35;4.90;;;;;;;14.71;70.38;100280.13;5348628;27;20019;-78
2022/11/08 12:56:16;;;;;;;5.40;2.20;;;;;;;14.72;69.86;100268.63;5368087;27;20078;-81
2022/11/08 12:58:53;;;;;;;2.97;2.00;;;;;;;14.73;69.61;100270.28;5370549;27;20106;-81
2022/11/08 13:01:24;;;;;;;5.45;2.13;;;;;;;14.76;69.60;100280.78;5350002;27;20026;-79
2022/11/08 13:04:20;;;;;;;2.15;1.80;;;;;;;14.84;69.75;100269.91;5348411;27;20549;-78
2022/11/08 13:07:07;;;;;;;4.85;2.30;;;;;;;14.94;68.66;100275.16;5349857;27;20027;-77
2022/11/08 13:10:11;;;;;;;3.20;1.92;;;;;;;15.00;68.96;100271.81;5348168;27;20118;-81
2022/11/08 13:12:51;;;;;;;3.67;1.92;;;;;;;14.97;69.64;100264.13;5341396;27;20039;-82
2022/11/08 13:15:24;;;;;;;5.03;1.75;;;;;;;14.98;69.57;100264.94;5360432;27;20045;-82
2022/11/08 13:18:10;;;;;;;4.57;1.90;;;;;;;14.98;69.34;100253.75;5369112;27;20028;-82
2022/11/08 13:20:45;;;;;;;3.65;1.95;;;;;;;14.98;69.87;100264.94;5370066;27;20113;-82
2022/11/08 13:23:28;;;;;;;6.97;2.07;;;;;;;14.99;70.16;100258.22;5369463;27;20101;-84
2022/11/08 13:26:23;;;;;;;3.25;1.80;;;;;;;15.02;70.05;100260.34;5369383;27;20392;-82
2022/11/08 13:29:14;;;;;;;3.95;1.80;;;;;;;15.04;70.12;100260.00;5369341;27;20027;-78
2022/11/08 13:32:02;;;;;;;2.42;1.70;;;;;;;15.07;69.87;100262.94;5363827;27;20031;-77
2022/11/08 13:34:43;;;;;;;6.50;2.63;;;;;;;15.14;69.60;100270.81;5352873;27;20055;-76
2022/11/08 13:37:36;;;;;;;4.55;2.72;;;;;;;15.17;69.76;100265.38;5347603;27;20020;-77
2022/11/08 13:40:33;;;;;;;3.75;1.80;;;;;;;15.25;69.32;100279.66;5347741;27;20378;-71
2022/11/08 13:43:22;;;;;;;;;;;;;;;15.31;69.86;100272.69;5348223;27;20030;-74
2022/11/08 13:45:53;;;;;;;4.80;1.77;;;;;;;15.32;69.35;100268.78;5362937;27;19920;-73
2022/11/08 13:48:34;;;;;;;2.90;1.77;;;;;;;15.35;69.36;100273.69;5361575;27;20030;-73
2022/11/08 13:51:31;;;;;;;4.13;2.10;;;;;;;15.38;69.68;100262.66;5347587;27;20466;-74
2022/11/08 13:54:25;;;;;;;5.28;1.80;;;;;;;15.41;69.23;100267.56;5347383;27;20035;-73
2022/11/08 13:56:58;;;;;;;4.53;1.90;;;;;;;15.40;69.51;100260.34;5339689;27;20039;-76
2022/11/08 13:59:29;;;;;;;4.15;1.90;;;;;;;15.40;68.90;100270.69;5368571;27;20212;-77
2022/11/08 14:02:21;;;;;;;3.72;1.73;;;;;;;15.42;69.45;100268.41;5356318;27;20110;-78
2022/11/08 14:04:53;;;;;;;3.85;1.88;;;;;;;15.49;69.61;100254.69;5346368;27;20051;-76
2022/11/08 14:07:33;;;;;;;3.95;1.70;;;;;;;15.54;69.52;100260.09;5347698;27;20023;-79
2022/11/08 14:10:20;;;;;;;3.30;2.03;;;;;;;15.53;69.30;100261.25;5347338;27;20023;-78
2022/11/08 14:13:16;;;;;;;4.00;1.90;;;;;;;15.56;69.73;100257.78;5346529;27;20055;-76
2022/11/08 14:15:54;;;;;;;;;;;;;;;15.60;69.64;100253.16;5347821;27;20031;-82
2022/11/08 14:18:31;;;;;;;3.95;2.53;;;;;;;15.57;70.34;100247.41;5358610;27;20385;-78
2022/11/08 14:21:04;;;;;;;6.45;2.25;;;;;;;15.47;70.05;100248.66;5360612;27;20105;-78
2022/11/08 14:23:40;;;;;;;5.03;2.30;;;;;;;15.40;70.45;100251.13;5368448;27;20430;-81
2022/11/08 14:26:16;;;;;;;13.55;7.15;;;;;;;15.34;70.07;100252.47;5350502;27;20038;-83
2022/11/08 14:28:48;;;;;;;4.00;1.90;;;;;;;15.31;70.57;100247.56;5347529;27;20381;-83
2022/11/08 14:31:32;;;;;;;4.03;2.00;;;;;;;15.26;71.09;100254.16;5347876;27;20110;-83
2022/11/08 14:34:03;;;;;;;4.88;2.28;;;;;;;15.23;71.04;100258.44;5357025;27;20022;-82
2022/11/08 14:36:35;;;;;;;6.85;2.55;;;;;;;15.19;71.15;100254.69;5346994;27;20042;-80
2022/11/08 14:39:17;;;;;;;5.28;2.50;;;;;;;15.19;71.55;100251.91;5347183;27;20461;-81
2022/11/08 14:41:54;;;;;;;2.70;2.00;;;;;;;15.19;71.70;100257.47;5356319;27;20019;-80
2022/11/08 14:44:26;;;;;;;5.38;2.75;;;;;;;15.17;72.04;100265.38;5347570;27;20029;-79
2022/11/08 14:46:57;;;;;;;3.83;2.13;;;;;;;15.17;72.11;100270.13;5367841;27;20019;-79
2022/11/08 14:49:35;;;;;;;3.17;1.95;;;;;;;15.13;72.34;100267.19;5368007;27;20023;-79
2022/11/08 14:52:14;;;;;;;6.18;2.70;;;;;;;15.13;72.33;100272.75;5346924;27;20019;-80
2022/11/08 14:54:46;;;;;;;3.42;2.10;;;;;;;15.11;72.47;100265.88;5361269;27;20501;-82
2022/11/08 14:57:29;;;;;;;3.10;1.95;;;;;;;15.07;73.04;100262.94;5368944;27;20015;-83
2022/11/08 15:00:25;;;;;;;4.57;2.40;;;;;;;15.06;73.25;100272.50;5356074;27;20098;-79
2022/11/08 15:02:59;;;;;;;;;;;;;;;15.08;72.84;100264.56;5358872;27;20030;-79
2022/11/08 15:05:52;;;;;;;4.05;1.83;;;;;;;15.03;73.33;100273.13;5356094;27;22598;-80
2022/11/08 15:08:28;;;;;;;3.75;1.60;;;;;;;15.03;73.51;100272.31;5347129;27;20035;-81
2022/11/08 15:11:04;;;;;;;4.60;1.83;;;;;;;15.00;73.38;100262.63;5358686;27;20382;-81
2022/11/08 15:13:40;;;;;;;;;;;;;;;15.03;73.61;100264.75;5351460;27;20083;-81
2022/11/08 15:16:11;;;;;;;3.33;2.22;;;;;;;14.98;73.87;100254.63;5355056;27;19954;-82
2022/11/08 15:18:47;;;;;;;5.45;2.15;;;;;;;14.98;73.96;100259.34;5350349;27;20080;-80
2022/11/08 15:21:29;;;;;;;5.97;2.10;;;;;;;14.96;73.76;100261.69;5350266;27;20027;-81
2022/11/08 15:24:14;;;;;;;4.03;1.73;;;;;;;14.94;74.27;100250.84;5366664;27;20026;-81
2022/11/08 15:27:04;;;;;;;2.88;2.10;;;;;;;14.97;74.32;100254.94;5369848;27;20023;-77
2022/11/08 15:29:59;;;;;;;11.80;2.80;;;;;;;14.95;74.79;100251.66;5351700;27;20066;-75
2022/11/08 15:32:40;;;;;;;4.20;2.20;;;;;;;14.89;74.87;100242.63;5371317;27;20023;-77
2022/11/08 15:35:38;;;;;;;5.43;1.70;;;;;;;14.92;75.05;100238.34;5369329;27;20033;-80
2022/11/08 15:38:34;;;;;;;6.35;4.57;;;;;;;14.89;75.10;100242.63;5352942;27;20046;-77
2022/11/08 15:41:36;;;;;;;3.53;2.10;;;;;;;14.88;75.32;100234.59;5359190;27;20037;-77
2022/11/08 15:44:18;;;;;;;2.90;1.98;;;;;;;14.87;75.24;100235.75;5346941;27;20393;-79
2022/11/08 15:46:50;;;;;;;2.85;1.90;;;;;;;14.85;75.43;100243.63;5350550;27;20023;-80
2022/11/08 15:49:21;;;;;;;5.32;2.13;;;;;;;14.84;75.90;100226.06;5351467;27;20087;-77
2022/11/08 15:51:57;;;;;;;5.43;2.42;;;;;;;14.79;76.05;100229.84;5362383;27;20430;-79
2022/11/08 15:54:28;;;;;;;;;;;;;;;14.84;75.76;100219.69;5372265;27;20128;-75
2022/11/08 15:56:59;;;;;;;5.43;2.40;;;;;;;14.77;76.10;100220.19;5370431;27;20408;-74
2022/11/08 15:59:51;;;;;;;3.55;2.03;;;;;;;14.74;76.19;100216.06;5372012;27;20284;-79
2022/11/08 16:02:23;;;;;;;4.18;2.10;;;;;;;14.72;76.53;100221.16;5374755;27;20046;-82
2022/11/08 16:04:55;;;;;;;3.28;1.98;;;;;;;14.69;76.46;100221.03;5352967;27;20426;-77
2022/11/08 16:07:26;;;;;;;6.10;2.10;;;;;;;14.68;76.62;100216.59;5362613;27;20052;-79
2022/11/08 16:10:03;;;;;;;2.95;2.20;;;;;;;14.65;76.62;100211.66;5362442;27;20496;-79
2022/11/08 16:12:36;;;;;;;3.00;2.20;;;;;;;14.65;76.71;100214.47;5361238;27;20023;-74
2022/11/08 16:15:20;;;;;;;4.57;2.20;;;;;;;14.65;76.84;100218.09;5349611;27;20110;-74
2022/11/08 16:17:51;;;;;;;5.15;2.70;;;;;;;14.58;77.50;100223.34;5358762;27;20045;-73
2022/11/08 16:20:26;;;;;;;4.25;3.00;;;;;;;14.57;77.58;100216.97;5371058;27;20023;-75
2022/11/08 16:23:00;;;;;;;5.38;3.38;;;;;;;14.53;77.40;100223.53;5351551;27;20426;-79
2022/11/08 16:25:45;;;;;;;6.05;2.85;;;;;;;14.53;77.60;100223.53;5368440;27;20046;-79
2022/11/08 16:28:33;;;;;;;4.88;2.15;;;;;;;14.52;77.66;100227.41;5365548;27;20027;-79
2022/11/08 16:31:07;;;;;;;4.18;2.20;;;;;;;14.55;78.38;100226.81;5369352;27;20075;-76
2022/11/08 16:33:43;;;;;;;4.57;2.55;;;;;;;14.48;77.95;100223.69;5365739;27;20026;-77
2022/11/08 16:36:20;;;;;;;4.63;2.42;;;;;;;14.49;78.17;100234.50;5358126;27;20042;-78
